Time;durP1;ratioP1;P1;durP2;ratioP2;P2;SDS_P1;SDS_P2;PMS_P1;PMS_P2;Temp;Humidity;BMP_temperature;BMP_pressure;BME280_temperature;BME280_humidity;BME280_pressure;Samples;Min_cycle;Max_cycle;Signal;HPM_P1;HPM_P2
2022/08/05 00:02:25;;;;;;;6.97;6.30;;;;;;;-143.84;72.31;45022.41;5091738;28;20444;-70
2022/08/05 00:04:54;;;;;;;8.10;6.90;;;;;;;-143.84;72.02;45020.50;5091661;28;20435;-70
2022/08/05 00:07:21;;;;;;;7.50;6.80;;;;;;;-143.84;72.09;45009.09;5091798;28;20497;-70
2022/08/05 00:09:48;;;;;;;15.53;6.87;;;;;;;-143.84;71.87;45022.41;5091698;28;20860;-70
2022/08/05 00:12:15;;;;;;;10.60;6.40;;;;;;;-143.84;71.93;44990.03;5091903;28;20439;-70
2022/08/05 00:14:43;;;;;;;8.80;7.20;;;;;;;-143.84;71.94;45020.50;5091822;28;20493;-70
2022/08/05 00:17:10;;;;;;;6.77;6.17;;;;;;;-143.84;71.72;45022.41;5091616;28;20986;-70
2022/08/05 00:19:37;;;;;;;9.00;6.77;;;;;;;-143.84;71.80;45016.69;5091680;28;20535;-70
2022/08/05 00:22:05;;;;;;;11.90;6.60;;;;;;;-143.84;71.81;45009.09;5091699;28;20435;-71
2022/08/05 00:24:33;;;;;;;7.13;6.47;;;;;;;-143.84;71.88;45028.13;5091449;28;20841;-70
2022/08/05 00:27:01;;;;;;;10.23;7.23;;;;;;;-143.84;71.78;45026.22;5091549;28;20509;-70
2022/08/05 00:29:28;;;;;;;7.83;7.10;;;;;;;-143.84;71.82;45010.97;5091591;28;20508;-70
2022/08/05 00:31:55;;;;;;;10.43;6.80;;;;;;;-143.84;71.55;45018.59;5091281;28;20497;-70
2022/08/05 00:34:22;;;;;;;7.60;6.90;;;;;;;-143.84;71.48;45026.22;5091266;28;20521;-70
2022/08/05 00:36:49;;;;;;;8.23;7.07;;;;;;;-143.84;71.39;45020.50;5090983;28;20428;-70
2022/08/05 00:39:18;;;;;;;7.53;6.63;;;;;;;-143.84;71.03;45012.88;5090389;28;20497;-70
2022/08/05 00:41:47;;;;;;;9.87;7.20;;;;;;;-143.84;71.08;44999.56;5090583;28;20536;-70
2022/08/05 00:44:14;;;;;;;8.97;6.90;;;;;;;-143.84;70.93;45030.03;5090568;28;20838;-70
2022/08/05 00:46:41;;;;;;;12.30;7.13;;;;;;;-143.84;71.14;45022.41;5090517;28;20912;-71
2022/08/05 00:49:08;;;;;;;7.30;6.70;;;;;;;-143.84;70.89;45009.09;5090406;28;20435;-70
2022/08/05 00:51:35;;;;;;;10.30;7.90;;;;;;;-143.84;70.88;45018.59;5090799;28;20451;-70
2022/08/05 00:54:03;;;;;;;7.23;6.60;;;;;;;-143.84;70.64;45026.22;5091144;28;20451;-70
2022/08/05 00:56:32;;;;;;;7.20;6.60;;;;;;;-143.84;70.90;45014.78;5090571;28;20497;-70
2022/08/05 00:58:59;;;;;;;6.90;6.20;;;;;;;-143.84;70.52;45031.94;5090568;28;20471;-70
2022/08/05 01:01:26;;;;;;;11.67;6.43;;;;;;;-143.84;70.67;45022.41;5090552;28;20830;-70
2022/08/05 01:03:53;;;;;;;10.20;6.90;;;;;;;-143.84;70.51;45037.66;5090478;28;20444;-70
2022/08/05 01:06:20;;;;;;;9.00;6.30;;;;;;;-143.84;70.81;45037.66;5090516;28;20476;-70
2022/08/05 01:08:47;;;;;;;7.70;6.90;;;;;;;-143.84;70.66;45024.31;5090541;28;20462;-70
2022/08/05 01:11:19;;;;;;;9.77;6.90;;;;;;;-143.84;70.98;45026.22;5090241;28;20440;-70
2022/08/05 01:13:57;;;;;;;8.60;7.30;;;;;;;-143.84;70.72;45026.22;5090508;28;20440;-70
2022/08/05 01:16:29;;;;;;;6.93;6.33;;;;;;;-143.84;71.02;45018.59;5090776;28;20862;-70
2022/08/05 01:19:01;;;;;;;12.70;6.87;;;;;;;-143.84;70.95;45014.78;5090111;28;20444;-70
2022/08/05 01:21:52;;;;;;;12.63;7.50;;;;;;;-143.84;70.97;45033.84;5090644;28;20432;-70
2022/08/05 01:24:47;;;;;;;7.20;6.37;;;;;;;-143.84;70.99;45026.22;5090163;28;20986;-70
2022/08/05 01:27:33;;;;;;;10.57;6.33;;;;;;;-143.84;71.03;45035.75;5082741;28;20491;-70
2022/08/05 01:30:04;;;;;;;31.93;6.67;;;;;;;-143.84;70.91;45018.59;5090213;28;20929;-70
2022/08/05 01:32:35;;;;;;;8.17;6.87;;;;;;;-143.84;70.91;45001.47;5090354;28;20451;-70
2022/08/05 01:35:06;;;;;;;7.43;6.77;;;;;;;-143.84;70.77;44991.94;5090110;28;20444;-70
2022/08/05 01:37:44;;;;;;;7.23;6.53;;;;;;;-143.84;70.97;45039.53;5089991;28;20428;-70
2022/08/05 01:40:12;;;;;;;9.47;6.40;;;;;;;-143.84;70.79;45028.13;5090052;28;20436;-70
2022/08/05 01:42:41;;;;;;;16.30;7.40;;;;;;;-143.84;70.95;45039.53;5090066;28;20456;-70
2022/08/05 01:45:13;;;;;;;6.83;6.23;;;;;;;-143.84;70.94;45016.69;5089797;28;20864;-70
2022/08/05 01:47:42;;;;;;;6.70;6.10;;;;;;;-143.84;70.94;45028.13;5089919;28;20784;-70
2022/08/05 01:50:12;;;;;;;10.97;6.23;;;;;;;-143.84;70.62;45009.09;5089781;28;20436;-70
2022/08/05 01:52:43;;;;;;;9.40;6.03;;;;;;;-143.84;70.74;45007.19;5090040;28;20435;-70
2022/08/05 01:55:13;;;;;;;6.60;5.97;;;;;;;-143.84;70.69;45009.09;5089863;28;20447;-70
2022/08/05 01:57:43;;;;;;;8.50;7.37;;;;;;;-143.84;70.67;45018.59;5089514;28;20475;-70
2022/08/05 02:00:13;;;;;;;7.43;6.83;;;;;;;-143.84;70.33;45028.13;5089627;28;20436;-70
2022/08/05 02:02:44;;;;;;;6.70;6.00;;;;;;;-143.84;70.55;45018.59;5089679;28;20891;-70
2022/08/05 02:05:13;;;;;;;7.57;6.43;;;;;;;-143.84;70.27;45049.06;5089820;28;20424;-71
2022/08/05 02:07:43;;;;;;;8.97;7.20;;;;;;;-143.84;70.30;45009.09;5089438;28;20432;-70
2022/08/05 02:10:11;;;;;;;10.83;6.17;;;;;;;-143.84;69.97;45020.50;5089476;28;20436;-70
2022/08/05 02:12:44;;;;;;;7.27;6.60;;;;;;;-143.84;69.94;45010.97;5089211;28;20966;-70
2022/08/05 02:15:22;;;;;;;8.17;6.33;;;;;;;-143.84;69.83;45005.28;5089316;28;20432;-70
2022/08/05 02:17:53;;;;;;;6.10;5.50;;;;;;;-143.84;69.59;45028.13;5089316;28;20447;-70
2022/08/05 02:20:25;;;;;;;8.17;6.87;;;;;;;-143.84;69.34;45020.50;5089002;28;20436;-70
2022/08/05 02:22:58;;;;;;;7.57;6.77;;;;;;;-143.84;69.67;45050.97;5088858;28;20938;-70
2022/08/05 02:25:29;;;;;;;7.70;6.20;;;;;;;-143.84;69.35;45035.75;5088507;28;20436;-70
2022/08/05 02:27:58;;;;;;;8.70;5.83;;;;;;;-143.84;69.71;45022.41;5089464;28;20432;-70
2022/08/05 02:30:31;;;;;;;11.93;6.30;;;;;;;-143.84;69.54;45026.22;5089127;28;20929;-70
2022/08/05 02:33:00;;;;;;;6.13;5.63;;;;;;;-143.84;69.74;45035.75;5089304;28;20991;-70
2022/08/05 02:35:28;;;;;;;6.50;5.77;;;;;;;-143.84;69.41;45020.50;5089120;28;20972;-70
2022/08/05 02:37:58;;;;;;;7.27;6.30;;;;;;;-143.84;69.32;45037.66;5089404;28;20424;-70
2022/08/05 02:40:26;;;;;;;6.87;6.10;;;;;;;-143.84;69.46;45010.97;5089190;28;20436;-70
2022/08/05 02:42:56;;;;;;;6.93;6.30;;;;;;;-143.84;69.60;45045.25;5088943;28;20493;-70
2022/08/05 02:45:25;;;;;;;9.43;6.10;;;;;;;-143.84;69.74;45026.22;5089094;28;20424;-70
2022/08/05 02:47:56;;;;;;;7.17;6.57;;;;;;;-143.84;70.06;45026.22;5089124;28;20451;-70
2022/08/05 02:50:24;;;;;;;11.43;7.17;;;;;;;-143.84;69.72;45003.38;5088970;28;20473;-70
2022/08/05 02:52:53;;;;;;;6.47;5.97;;;;;;;-143.84;69.74;45018.59;5089294;28;20436;-70
2022/08/05 02:55:21;;;;;;;7.47;6.47;;;;;;;-143.84;69.97;45037.66;5089306;28;20846;-70
2022/08/05 02:57:48;;;;;;;6.93;6.33;;;;;;;-143.84;69.95;45026.22;5088595;28;20476;-70
2022/08/05 03:00:16;;;;;;;9.10;6.67;;;;;;;-143.84;69.80;45024.31;5088643;28;21066;-70
2022/08/05 03:02:46;;;;;;;7.33;6.20;;;;;;;-143.84;69.78;45049.06;5092915;28;20963;-70
2022/08/05 03:05:16;;;;;;;6.63;6.03;;;;;;;-143.84;69.92;45010.97;5093190;28;20435;-70
2022/08/05 03:07:44;;;;;;;6.60;5.77;;;;;;;-143.84;70.15;45045.25;5093257;28;20479;-71
2022/08/05 03:10:11;;;;;;;17.57;6.47;;;;;;;-143.84;70.38;45031.94;5093443;28;20570;-70
2022/08/05 03:12:39;;;;;;;7.00;6.50;;;;;;;-143.84;70.39;45030.03;5093667;28;20436;-71
2022/08/05 03:15:09;;;;;;;7.60;7.00;;;;;;;-143.84;70.26;45028.13;5093568;28;20488;-71
2022/08/05 03:17:36;;;;;;;8.07;6.13;;;;;;;-143.84;70.14;45022.41;5093522;28;20440;-71
2022/08/05 03:20:05;;;;;;;10.20;6.50;;;;;;;-143.84;70.55;45007.19;5093974;28;20432;-71
2022/08/05 03:22:33;;;;;;;8.60;6.50;;;;;;;-143.84;70.24;45045.25;5093504;28;20484;-71
2022/08/05 03:25:01;;;;;;;7.63;6.93;;;;;;;-143.84;70.17;45039.53;5093785;28;20473;-71
2022/08/05 03:27:28;;;;;;;8.47;6.10;;;;;;;-143.84;70.18;45049.06;5093111;28;20827;-71
2022/08/05 03:29:55;;;;;;;6.37;5.87;;;;;;;-143.84;70.17;45039.53;5093199;28;20556;-71
2022/08/05 03:32:22;;;;;;;6.80;6.17;;;;;;;-143.84;70.39;45020.50;5093006;28;20435;-70
2022/08/05 03:34:50;;;;;;;6.60;5.97;;;;;;;-143.84;70.67;45041.44;5092962;28;20436;-71
2022/08/05 03:37:17;;;;;;;6.43;5.83;;;;;;;-143.84;70.56;45047.16;5092517;28;20451;-70
2022/08/05 03:40:01;;;;;;;6.87;6.27;;;;;;;-143.84;70.39;45026.22;5093068;28;20500;-70
2022/08/05 03:42:29;;;;;;;9.10;6.97;;;;;;;-143.84;70.19;45003.38;5092751;28;21021;-70
2022/08/05 03:44:56;;;;;;;12.43;6.00;;;;;;;-143.84;69.07;45018.59;5092817;28;20440;-70
2022/08/05 03:47:23;;;;;;;11.93;6.23;;;;;;;-143.84;66.64;45010.97;5092125;28;20479;-70
2022/08/05 03:49:50;;;;;;;6.37;5.80;;;;;;;-143.84;64.98;45028.13;5109067;28;20438;-70
2022/08/05 03:52:22;;;;;;;7.70;6.90;;;;;;;-143.84;63.33;45047.16;5112515;28;20976;-71
2022/08/05 03:54:54;;;;;;;9.60;5.80;;;;;;;-143.84;61.68;45014.78;5112377;28;20441;-70
2022/08/05 03:57:25;;;;;;;6.77;6.10;;;;;;;-143.84;58.85;45014.78;5112111;28;21095;-70
2022/08/05 03:59:57;;;;;;;11.73;6.37;;;;;;;-143.84;57.11;44978.63;5112208;28;20447;-70
2022/08/05 04:02:27;;;;;;;7.03;6.37;;;;;;;-143.84;54.15;44963.38;5112024;28;20447;-70
2022/08/05 04:04:54;;;;;;;6.30;5.70;;;;;;;-143.84;52.00;44991.94;5111528;28;20439;-70
2022/08/05 04:07:23;;;;;;;8.43;5.47;;;;;;;-143.84;50.74;44967.19;5111203;28;20471;-70
2022/08/05 04:09:51;;;;;;;14.60;5.87;;;;;;;-143.84;49.88;44961.47;5111747;28;20518;-70
2022/08/05 04:12:18;;;;;;;7.60;5.30;;;;;;;-143.84;49.28;44984.31;5111140;28;20443;-69
2022/08/05 04:14:47;;;;;;;12.70;5.47;;;;;;;-143.84;48.87;44961.47;5113292;28;20431;-69
2022/08/05 04:17:15;;;;;;;6.53;5.90;;;;;;;-143.84;48.14;44988.13;5113036;28;20446;-69
2022/08/05 04:19:43;;;;;;;5.93;5.33;;;;;;;-143.84;47.24;44961.47;5112980;28;20442;-69
2022/08/05 04:22:10;;;;;;;5.23;4.87;;;;;;;-143.84;47.06;44953.88;5112929;28;20855;-69
2022/08/05 04:24:38;;;;;;;11.93;6.10;;;;;;;-143.84;46.89;44934.81;5112773;28;20428;-69
2022/08/05 04:27:05;;;;;;;7.73;5.83;;;;;;;-143.84;46.72;44957.66;5112772;28;21007;-69
2022/08/05 04:29:33;;;;;;;8.50;5.70;;;;;;;-143.84;46.95;44953.88;5094738;28;21001;-69
2022/08/05 04:32:01;;;;;;;6.77;5.00;;;;;;;-143.84;46.55;44921.50;5113117;28;20442;-69
2022/08/05 04:34:28;;;;;;;6.47;5.87;;;;;;;-143.84;46.50;44923.41;5112855;28;21020;-69
2022/08/05 04:36:55;;;;;;;5.77;5.30;;;;;;;-143.84;46.41;44957.66;5112431;28;20438;-69
2022/08/05 04:39:22;;;;;;;6.00;5.27;;;;;;;-143.84;46.01;44932.91;5112790;28;20465;-69
2022/08/05 04:41:50;;;;;;;5.50;5.00;;;;;;;-143.84;45.89;44927.19;5112600;28;20432;-69
2022/08/05 04:44:17;;;;;;;13.77;4.97;;;;;;;-143.84;45.60;44921.50;5112738;28;20427;-69
2022/08/05 04:46:44;;;;;;;4.97;4.57;;;;;;;-143.84;45.74;44944.34;5112654;28;20543;-69
2022/08/05 04:49:13;;;;;;;6.67;5.27;;;;;;;-143.84;45.47;44957.66;5112377;28;20509;-69
2022/08/05 04:51:40;;;;;;;5.30;4.80;;;;;;;-143.84;45.46;44957.66;5112479;28;20808;-69
2022/08/05 04:54:07;;;;;;;6.47;6.03;;;;;;;-143.84;45.21;44932.91;5111729;28;20443;-69
2022/08/05 04:56:34;;;;;;;6.03;5.20;;;;;;;-143.84;44.87;44944.34;5112118;28;20462;-69
2022/08/05 04:59:01;;;;;;;6.53;5.20;;;;;;;-143.84;45.07;44938.63;5111152;28;20479;-69
2022/08/05 05:01:28;;;;;;;8.73;4.87;;;;;;;-143.84;44.60;44913.88;5104098;28;20450;-69
2022/08/05 05:03:56;;;;;;;7.10;4.83;;;;;;;-143.84;44.43;44925.31;5091234;28;20485;-69
2022/08/05 05:06:24;;;;;;;13.33;4.83;;;;;;;-143.84;44.15;44898.66;5091488;28;20982;-68
2022/08/05 05:08:52;;;;;;;5.90;5.40;;;;;;;-143.84;43.62;44923.41;5091629;28;20524;-69
2022/08/05 05:11:19;;;;;;;6.20;4.43;;;;;;;-143.84;43.13;44908.16;5091823;28;20432;-69
2022/08/05 05:13:46;;;;;;;5.90;5.10;;;;;;;-143.84;42.04;44906.25;5091430;28;20435;-69
2022/08/05 05:16:13;;;;;;;4.80;4.30;;;;;;;-143.84;42.19;44891.03;5091245;28;20440;-69
2022/08/05 05:18:42;;;;;;;8.43;5.10;;;;;;;-143.84;42.19;44902.44;5091328;28;21018;-69
2022/08/05 05:21:09;;;;;;;8.50;4.73;;;;;;;-143.84;42.38;44915.78;5091587;28;20542;-69
2022/08/05 05:23:38;;;;;;;5.40;4.93;;;;;;;-143.84;41.90;44881.50;5090886;28;20493;-69
2022/08/05 05:26:05;;;;;;;7.67;4.50;;;;;;;-143.84;42.34;44902.44;5091278;28;20448;-69
2022/08/05 05:28:32;;;;;;;8.27;5.37;;;;;;;-143.84;42.08;44881.50;5091247;28;20460;-69
2022/08/05 05:30:59;;;;;;;8.47;4.73;;;;;;;-143.84;41.99;44885.31;5091281;28;20436;-69
2022/08/05 05:33:27;;;;;;;5.37;4.60;;;;;;;-143.84;41.31;44894.84;5091217;28;21014;-69
2022/08/05 05:35:54;;;;;;;6.47;5.30;;;;;;;-143.84;40.71;44919.59;5091368;28;20447;-69
2022/08/05 05:51:18;;;;;;;7.37;4.90;;;;;;;-143.84;39.12;44862.47;5127315;27;20281;-69
2022/08/05 05:53:46;;;;;;;4.83;4.43;;;;;;;-143.84;39.06;44877.69;5127539;28;20461;-70
2022/08/05 05:56:13;;;;;;;9.10;4.43;;;;;;;-143.84;39.25;44892.94;5127468;28;20775;-69
2022/08/05 05:58:40;;;;;;;4.30;3.90;;;;;;;-143.84;38.86;44875.78;5127216;28;20478;-69
2022/08/05 06:01:07;;;;;;;7.47;4.40;;;;;;;-143.84;38.09;44873.88;5127014;27;20434;-70
2022/08/05 06:03:34;;;;;;;5.30;4.80;;;;;;;-143.84;38.70;44875.78;5128631;28;20442;-77
2022/08/05 06:06:01;;;;;;;8.70;4.50;;;;;;;-143.84;38.98;44833.91;5127161;27;20479;-74
2022/08/05 06:08:30;;;;;;;11.30;4.70;;;;;;;-143.84;38.96;44873.88;5126261;28;20499;-74
2022/08/05 06:10:57;;;;;;;7.27;4.57;;;;;;;-143.84;38.55;44866.28;5126561;27;20862;-74
2022/08/05 06:13:24;;;;;;;5.20;4.70;;;;;;;-143.84;38.29;44864.38;5126365;28;20430;-74
2022/08/05 06:15:51;;;;;;;5.93;4.63;;;;;;;-143.84;37.68;44864.38;5126403;28;20438;-74
2022/08/05 06:18:18;;;;;;;5.30;4.70;;;;;;;-143.84;37.57;44847.22;5126446;28;20483;-74
2022/08/05 06:20:46;;;;;;;8.97;5.10;;;;;;;-143.84;37.52;44860.56;5126253;28;20538;-74
2022/08/05 06:23:13;;;;;;;5.90;5.30;;;;;;;-143.84;37.51;44885.31;5126128;28;20442;-74
2022/08/05 06:25:41;;;;;;;5.90;5.40;;;;;;;-143.84;36.96;44854.84;5126414;27;20442;-74
2022/08/05 06:28:09;;;;;;;5.87;4.63;;;;;;;-143.84;37.98;44841.53;5126061;28;20438;-74
2022/08/05 06:30:36;;;;;;;8.17;5.50;;;;;;;-143.84;37.35;44851.03;5126053;27;20995;-74
2022/08/05 06:33:03;;;;;;;12.57;5.47;;;;;;;-143.84;37.33;44864.38;5126047;28;20464;-74
2022/08/05 06:35:30;;;;;;;5.30;4.80;;;;;;;-143.84;36.99;44875.78;5125972;28;20434;-74
2022/08/05 06:37:57;;;;;;;9.00;4.97;;;;;;;-143.84;37.99;44856.75;5125877;28;20502;-74
2022/08/05 06:40:24;;;;;;;5.83;5.10;;;;;;;-143.84;37.57;44862.47;5126019;28;21176;-74
2022/08/05 06:42:53;;;;;;;6.57;5.67;;;;;;;-143.84;37.33;44847.22;5126022;28;20946;-74
2022/08/05 06:45:21;;;;;;;5.50;5.00;;;;;;;-143.84;37.48;44835.81;5125716;28;20434;-74
2022/08/05 06:47:48;;;;;;;7.00;4.70;;;;;;;-143.84;37.28;44824.38;5125803;27;20438;-74
2022/08/05 06:50:15;;;;;;;6.20;4.90;;;;;;;-143.84;37.43;44814.88;5122210;28;20490;-74
2022/08/05 06:52:43;;;;;;;5.70;5.17;;;;;;;-143.84;37.26;44832.00;5093964;28;20431;-74
2022/08/05 06:55:10;;;;;;;7.87;4.57;;;;;;;-143.84;37.29;44795.81;5112017;28;20434;-74
2022/08/05 06:57:37;;;;;;;5.30;4.90;;;;;;;-143.84;36.57;44832.00;5112150;28;20438;-74
2022/08/05 07:00:07;;;;;;;4.97;4.50;;;;;;;-143.84;35.38;44811.06;5111778;28;20535;-74
2022/08/05 07:02:42;;;;;;;5.43;4.83;;;;;;;-143.84;35.76;44805.34;5112188;28;20846;-74
2022/08/05 07:05:10;;;;;;;5.57;4.93;;;;;;;-143.84;35.25;44830.09;5112014;28;20786;-74
2022/08/05 07:07:37;;;;;;;3.97;3.67;;;;;;;-143.84;35.18;44820.56;5111685;28;20443;-74
2022/08/05 07:10:05;;;;;;;5.40;4.87;;;;;;;-143.84;35.27;44820.56;5111954;28;20435;-74
2022/08/05 07:18:06;;;;;;;8.20;3.97;;;;;;;-143.84;33.91;44809.16;5076844;28;20438;-74
2022/08/05 07:20:33;;;;;;;5.00;4.53;;;;;;;-143.84;33.46;44772.97;5111444;28;20471;-74
2022/08/05 07:23:00;;;;;;;5.23;4.60;;;;;;;-143.84;34.32;44809.16;5111302;28;20454;-74
2022/08/05 07:25:27;;;;;;;12.33;4.93;;;;;;;-143.84;33.75;44818.66;5111211;28;20431;-74
2022/08/05 07:27:55;;;;;;;7.67;4.73;;;;;;;-143.84;34.20;44816.78;5111385;28;21007;-74
2022/08/05 07:30:24;;;;;;;6.77;4.60;;;;;;;-143.84;34.26;44790.13;5111465;28;20434;-74
2022/08/05 07:32:51;;;;;;;4.87;3.97;;;;;;;-143.84;33.79;44774.88;5111408;28;20451;-74
2022/08/05 07:35:18;;;;;;;7.13;5.00;;;;;;;-143.84;34.17;44784.41;5110951;28;20431;-74
2022/08/05 07:37:45;;;;;;;4.40;4.10;;;;;;;-143.84;34.76;44778.69;5111026;28;20438;-74
2022/08/05 07:40:12;;;;;;;5.63;4.17;;;;;;;-143.84;33.90;44765.34;5110855;28;20486;-74
2022/08/05 07:42:40;;;;;;;4.97;4.57;;;;;;;-143.84;32.97;44795.81;5111342;28;20435;-74
2022/08/05 07:45:08;;;;;;;4.80;4.10;;;;;;;-143.84;33.73;44776.78;5111023;28;20435;-74
2022/08/05 07:47:37;;;;;;;5.37;3.53;;;;;;;-143.84;33.08;44774.88;5111254;28;20438;-74
2022/08/05 07:50:04;;;;;;;5.83;3.63;;;;;;;-143.84;32.66;44788.22;5110584;28;20539;-74
2022/08/05 07:52:31;;;;;;;5.10;3.73;;;;;;;-143.84;33.32;44795.81;5110706;28;20454;-74
2022/08/05 07:54:59;;;;;;;5.87;4.70;;;;;;;-143.84;33.17;44778.69;5110794;28;20435;-74
2022/08/05 07:57:26;;;;;;;4.57;4.13;;;;;;;-143.84;33.17;44748.22;5110807;28;20447;-74
2022/08/05 07:59:53;;;;;;;4.80;4.07;;;;;;;-143.84;33.41;44778.69;5110725;28;20471;-74
2022/08/05 08:02:24;;;;;;;6.10;4.37;;;;;;;-143.84;32.94;44767.25;5109694;28;20435;-74
2022/08/05 08:04:53;;;;;;;6.03;4.30;;;;;;;-143.84;33.29;44733.00;5109861;28;20443;-74
2022/08/05 08:07:21;;;;;;;3.77;3.47;;;;;;;-143.84;34.08;44753.94;5109698;28;20488;-74
2022/08/05 08:09:49;;;;;;;4.33;4.03;;;;;;;-143.84;33.85;44729.19;5110381;28;20442;-74
2022/08/05 08:12:16;;;;;;;4.40;4.00;;;;;;;-143.84;32.96;44759.66;5109893;28;20423;-74
2022/08/05 08:14:44;;;;;;;8.40;4.47;;;;;;;-143.84;32.37;44750.13;5109936;28;21038;-74
2022/08/05 08:17:11;;;;;;;4.87;4.43;;;;;;;-143.84;32.63;44771.06;5110275;28;20439;-74
2022/08/05 08:19:39;;;;;;;4.40;4.00;;;;;;;-143.84;32.06;44778.69;5110637;28;20479;-74
2022/08/05 08:22:08;;;;;;;3.90;3.70;;;;;;;-143.84;32.54;44765.34;5110507;28;21358;-74
2022/08/05 08:24:36;;;;;;;4.13;3.80;;;;;;;-143.84;32.26;44778.69;5110463;28;20439;-74
2022/08/05 08:27:05;;;;;;;3.40;3.20;;;;;;;-143.84;31.90;44807.25;5110369;28;20439;-74
2022/08/05 08:29:32;;;;;;;3.73;3.53;;;;;;;-143.84;32.75;44753.94;5110106;28;20959;-74
2022/08/05 08:31:59;;;;;;;5.97;4.10;;;;;;;-143.84;33.10;44753.94;5109940;28;20443;-74
2022/08/05 08:34:27;;;;;;;5.37;4.00;;;;;;;-143.84;32.71;44788.22;5110017;28;21005;-74
2022/08/05 08:36:54;;;;;;;5.57;3.57;;;;;;;-143.84;32.49;44757.75;5109966;28;20446;-74
2022/08/05 08:39:23;;;;;;;3.30;3.10;;;;;;;-143.84;31.90;44753.94;5109894;28;21056;-74
2022/08/05 08:41:53;;;;;;;5.83;3.43;;;;;;;-143.84;33.14;44761.56;5110024;28;20467;-74
2022/08/05 08:44:21;;;;;;;4.17;3.77;;;;;;;-143.84;33.41;44780.59;5109860;28;20450;-74
2022/08/05 08:46:49;;;;;;;3.73;3.53;;;;;;;-143.84;32.75;44782.50;5109864;28;20496;-74
2022/08/05 08:49:18;;;;;;;4.10;3.77;;;;;;;-143.84;33.02;44715.84;5109509;28;20470;-74
2022/08/05 08:51:48;;;;;;;5.03;3.50;;;;;;;-143.84;31.95;44729.19;5109796;28;20447;-74
2022/08/05 08:54:16;;;;;;;5.50;3.90;;;;;;;-143.84;33.45;44786.31;5109915;28;20443;-74
2022/08/05 08:56:45;;;;;;;20.90;4.60;;;;;;;-143.84;32.29;44752.03;5109679;28;20939;-74
2022/08/05 08:59:12;;;;;;;26.93;5.00;;;;;;;-143.84;32.18;44771.06;5109928;28;20447;-73
2022/08/05 09:01:41;;;;;;;3.97;3.77;;;;;;;-143.84;32.68;44750.13;5112855;28;20478;-78
2022/08/05 09:04:08;;;;;;;4.10;3.80;;;;;;;-143.84;32.99;44721.56;5112785;28;20959;-77
2022/08/05 09:06:36;;;;;;;12.17;3.70;;;;;;;-143.84;33.14;44713.94;5112932;28;20485;-77
2022/08/05 09:09:03;;;;;;;4.27;3.97;;;;;;;-143.84;31.80;44744.41;5113310;28;20492;-77
2022/08/05 09:11:32;;;;;;;8.33;4.30;;;;;;;-143.84;32.07;44744.41;5113559;28;20445;-77
2022/08/05 09:14:01;;;;;;;4.60;4.17;;;;;;;-143.84;31.95;44742.50;5113182;28;20443;-77
2022/08/05 09:16:29;;;;;;;7.20;3.60;;;;;;;-143.84;31.94;44742.50;5113212;28;20447;-77
2022/08/05 09:18:56;;;;;;;7.20;3.90;;;;;;;-143.84;32.11;44738.69;5113157;28;20438;-78
2022/08/05 09:21:27;;;;;;;3.70;3.40;;;;;;;-143.84;31.83;44757.75;5113627;28;20478;-77
2022/08/05 09:24:04;;;;;;;7.60;4.10;;;;;;;-143.84;31.94;44778.69;5113152;28;20529;-77
2022/08/05 09:26:31;;;;;;;4.63;4.23;;;;;;;-143.84;32.08;44784.41;5113580;28;20488;-77
2022/08/05 09:29:03;;;;;;;14.43;5.37;;;;;;;-143.84;33.03;44774.88;5113377;28;21146;-73
2022/08/05 09:31:31;;;;;;;7.43;3.70;;;;;;;-143.84;32.94;44782.50;5109160;28;20878;-74
2022/08/05 09:34:01;;;;;;;4.70;4.13;;;;;;;-143.84;33.43;44772.97;5109269;28;20447;-74
2022/08/05 09:36:43;;;;;;;4.50;4.10;;;;;;;-143.84;33.43;44793.91;5109458;28;20531;-74
2022/08/05 09:39:12;;;;;;;5.47;5.00;;;;;;;-143.84;34.11;44774.88;5106087;28;20454;-74
2022/08/05 09:42:05;;;;;;;4.67;4.07;;;;;;;-143.84;34.63;44782.50;5108861;28;20478;-74
2022/08/05 09:44:40;;;;;;;15.10;5.03;;;;;;;-143.84;34.69;44812.97;5085619;28;20976;-74
2022/08/05 09:47:12;;;;;;;5.43;4.63;;;;;;;-143.84;35.94;44822.47;5109129;28;20883;-74
2022/08/05 09:49:44;;;;;;;4.30;4.00;;;;;;;-143.84;38.06;44818.66;5108924;28;20470;-74
2022/08/05 09:52:19;;;;;;;5.07;4.40;;;;;;;-143.84;38.99;44841.53;5109170;28;20426;-74
2022/08/05 09:55:01;;;;;;;11.40;5.43;;;;;;;-143.84;39.70;44849.13;5109159;28;20459;-74
2022/08/05 09:57:34;;;;;;;4.87;3.67;;;;;;;-143.84;41.02;44841.53;5108779;28;20842;-74
2022/08/05 10:00:09;;;;;;;6.87;4.70;;;;;;;-143.84;41.71;44832.00;5108894;28;20491;-74
2022/08/05 10:02:39;;;;;;;5.63;4.60;;;;;;;-143.84;40.86;44793.91;5108895;28;20541;-74
2022/08/05 10:05:08;;;;;;;4.80;4.30;;;;;;;-143.84;40.38;44809.16;5108854;28;20451;-74
2022/08/05 10:07:47;;;;;;;5.83;5.33;;;;;;;-143.84;39.66;44801.53;5108861;28;20474;-74
2022/08/05 10:10:15;;;;;;;5.00;4.60;;;;;;;-143.84;39.53;44856.75;5108836;28;20454;-74
2022/08/05 10:12:47;;;;;;;10.97;5.27;;;;;;;-143.84;40.43;44847.22;5109208;28;21254;-74
2022/08/05 10:15:18;;;;;;;7.70;5.10;;;;;;;-143.84;41.40;44862.47;5108729;28;20454;-74
2022/08/05 10:18:02;;;;;;;5.83;4.80;;;;;;;-143.84;40.53;44862.47;5108851;28;20450;-74
2022/08/05 10:20:31;;;;;;;8.20;4.87;;;;;;;-143.84;41.02;44841.53;5108830;28;20489;-74
2022/08/05 10:23:00;;;;;;;5.47;4.97;;;;;;;-143.84;41.96;44845.31;5108871;28;20520;-74
2022/08/05 10:25:27;;;;;;;5.70;4.87;;;;;;;-143.84;40.68;44851.03;5109179;28;20517;-74
2022/08/05 10:27:55;;;;;;;6.07;5.47;;;;;;;-143.84;40.62;44843.44;5112603;28;20431;-74
2022/08/05 10:30:23;;;;;;;7.20;4.67;;;;;;;-143.84;40.80;44851.03;5112390;28;20439;-74
2022/08/05 10:32:50;;;;;;;5.33;4.80;;;;;;;-143.84;41.17;44843.44;5112391;28;20439;-73
2022/08/05 10:35:17;;;;;;;9.23;5.13;;;;;;;-143.84;41.97;44873.88;5112830;28;20492;-73
2022/08/05 10:37:47;;;;;;;6.63;5.00;;;;;;;-143.84;42.29;44870.09;5112276;28;20458;-74
2022/08/05 10:40:25;;;;;;;6.87;5.00;;;;;;;-143.84;43.06;44887.22;5112379;28;20490;-74
2022/08/05 10:42:54;;;;;;;5.27;4.87;;;;;;;-143.84;43.08;44892.94;5112145;28;20435;-74
2022/08/05 10:45:29;;;;;;;7.20;5.27;;;;;;;-143.84;42.45;44862.47;5112027;28;20446;-74
2022/08/05 10:47:56;;;;;;;7.00;4.87;;;;;;;-143.84;41.91;44871.97;5112147;28;20438;-74
2022/08/05 10:50:23;;;;;;;5.13;4.50;;;;;;;-143.84;42.57;44889.13;5112009;28;20487;-74
2022/08/05 10:52:55;;;;;;;5.90;4.57;;;;;;;-143.84;41.92;44868.19;5112385;28;20507;-74
2022/08/05 10:55:23;;;;;;;4.80;4.50;;;;;;;-143.84;40.28;44847.22;5112147;28;20990;-74
2022/08/05 10:58:09;;;;;;;16.60;5.80;;;;;;;-143.84;42.04;44866.28;5112011;28;20445;-74
2022/08/05 11:00:38;;;;;;;6.77;4.83;;;;;;;-143.84;42.39;44894.84;5111741;28;20489;-74
2022/08/05 11:03:13;;;;;;;6.20;5.00;;;;;;;-143.84;44.39;44881.50;5112029;28;20862;-73
2022/08/05 11:05:40;;;;;;;14.40;4.47;;;;;;;-143.84;42.20;44877.69;5111949;28;20439;-74
2022/08/05 11:08:09;;;;;;;4.03;3.80;;;;;;;-143.84;41.65;44883.41;5111934;28;20431;-74
2022/08/05 11:10:38;;;;;;;6.53;4.97;;;;;;;-143.84;42.27;44892.94;5111747;28;20435;-74
2022/08/05 11:13:07;;;;;;;5.93;4.70;;;;;;;-143.84;42.17;44858.66;5111476;28;20447;-74
2022/08/05 11:15:40;;;;;;;5.63;4.40;;;;;;;-143.84;41.68;44851.03;5111736;28;20465;-74
2022/08/05 11:18:22;;;;;;;5.80;4.87;;;;;;;-143.84;42.39;44877.69;5111723;28;20439;-74
2022/08/05 11:20:51;;;;;;;5.33;4.80;;;;;;;-143.84;41.80;44871.97;5111486;28;21063;-74
2022/08/05 11:23:42;;;;;;;7.50;4.00;;;;;;;-143.84;41.44;44877.69;5111524;28;20530;-73
2022/08/05 11:26:11;;;;;;;6.67;5.20;;;;;;;-143.84;40.40;44894.84;5111679;28;20500;-74
2022/08/05 11:28:43;;;;;;;4.93;4.53;;;;;;;-143.84;40.39;44858.66;5111193;28;20504;-74
2022/08/05 11:31:33;;;;;;;4.77;4.30;;;;;;;-143.84;40.27;44866.28;5111221;28;20450;-74
2022/08/05 11:34:04;;;;;;;8.60;5.17;;;;;;;-143.84;40.37;44870.09;5111263;28;20967;-74
2022/08/05 11:36:55;;;;;;;4.97;4.43;;;;;;;-143.84;40.94;44862.47;5111014;28;20921;-74
2022/08/05 11:39:49;;;;;;;5.00;4.13;;;;;;;-143.84;42.78;44883.41;5111092;28;20442;-74
2022/08/05 11:42:18;;;;;;;5.10;4.50;;;;;;;-143.84;43.60;44887.22;5090599;28;20471;-74
2022/08/05 11:44:47;;;;;;;5.20;4.80;;;;;;;-143.84;41.92;44891.03;5090868;28;20508;-74
2022/08/05 11:47:15;;;;;;;4.57;4.27;;;;;;;-143.84;41.48;44845.31;5090675;28;20447;-74